Time;durP1;ratioP1;P1;durP2;ratioP2;P2;SDS_P1;SDS_P2;PMS_P1;PMS_P2;Temp;Humidity;BMP_temperature;BMP_pressure;BME280_temperature;BME280_humidity;BME280_pressure;Samples;Min_cycle;Max_cycle;Signal;HPM_P1;HPM_P2
2024/04/06 00:02:08;;;;;;;8.20;5.60;;;;;;;;;;5078085;28;20546;-72
2024/04/06 00:04:36;;;;;;;6.00;5.50;;;;;;;;;;5076085;28;20213;-71
2024/04/06 00:07:01;;;;;;;5.93;5.27;;;;;;;;;;5078072;28;20490;-73
2024/04/06 00:09:27;;;;;;;5.30;4.80;;;;;;;;;;5077447;28;20488;-74
2024/04/06 00:11:53;;;;;;;5.50;4.67;;;;;;;;;;5079009;28;20228;-72
2024/04/06 00:14:21;;;;;;;5.07;4.67;;;;;;;;;;5079458;28;20452;-73
2024/04/06 00:16:47;;;;;;;5.20;4.70;;;;;;;;;;5075610;28;20210;-73
2024/04/06 00:19:13;;;;;;;5.40;4.40;;;;;;;;;;5076924;28;20456;-73
2024/04/06 00:21:39;;;;;;;5.57;4.53;;;;;;;;;;5076318;28;20536;-71
2024/04/06 00:24:05;;;;;;;5.40;4.90;;;;;;;;;;5077187;28;20455;-75
2024/04/06 00:26:31;;;;;;;4.60;4.30;;;;;;;;;;5077613;28;20205;-74
2024/04/06 00:28:57;;;;;;;6.00;5.00;;;;;;;;;;5078401;28;20545;-73
2024/04/06 00:31:24;;;;;;;6.83;5.73;;;;;;;;;;5077315;28;20201;-74
2024/04/06 00:33:51;;;;;;;8.80;6.17;;;;;;;;;;5073173;28;20448;-73
2024/04/06 00:36:16;;;;;;;6.13;5.20;;;;;;;;;;5076204;28;20925;-71
2024/04/06 00:38:43;;;;;;;6.13;5.60;;;;;;;;;;5079164;28;20499;-72
2024/04/06 00:41:08;;;;;;;5.50;4.90;;;;;;;;;;5078163;28;20232;-74
2024/04/06 00:43:35;;;;;;;5.73;5.00;;;;;;;;;;5079783;28;20456;-73
2024/04/06 00:46:00;;;;;;;5.10;4.80;;;;;;;;;;5077389;28;20678;-75
2024/04/06 00:48:28;;;;;;;9.70;4.90;;;;;;;;;;5077692;28;20478;-73
2024/04/06 00:50:57;;;;;;;5.03;4.47;;;;;;;;;;5081001;28;20216;-71
2024/04/06 00:53:23;;;;;;;6.13;5.50;;;;;;;;;;5076862;28;20474;-71
2024/04/06 00:55:49;;;;;;;6.40;5.87;;;;;;;;;;5078375;28;20470;-73
2024/04/06 00:58:16;;;;;;;7.03;5.37;;;;;;;;;;5074052;28;20444;-72
2024/04/06 01:00:41;;;;;;;6.30;5.40;;;;;;;;;;5078934;28;20776;-75
2024/04/06 01:03:07;;;;;;;6.43;4.50;;;;;;;;;;5075941;28;20516;-73
2024/04/06 01:05:34;;;;;;;7.40;4.87;;;;;;;;;;5075096;28;20201;-73
2024/04/06 01:08:01;;;;;;;5.70;5.10;;;;;;;;;;5078223;28;20459;-71
2024/04/06 01:10:26;;;;;;;4.40;4.10;;;;;;;;;;5078441;28;20480;-72
2024/04/06 01:12:53;;;;;;;6.43;5.10;;;;;;;;;;5078924;28;20451;-75
2024/04/06 01:15:18;;;;;;;4.73;4.30;;;;;;;;;;5074522;28;20274;-75
2024/04/06 01:17:45;;;;;;;8.03;4.90;;;;;;;;;;5081691;28;20463;-74
2024/04/06 01:20:11;;;;;;;5.73;5.07;;;;;;;;;;5076218;28;20209;-75
2024/04/06 01:22:39;;;;;;;5.50;4.27;;;;;;;;;;5072152;28;20535;-74
2024/04/06 01:25:06;;;;;;;8.53;4.63;;;;;;;;;;5075848;28;20517;-74
2024/04/06 01:27:32;;;;;;;6.70;4.70;;;;;;;;;;5072656;28;20448;-74
2024/04/06 01:29:58;;;;;;;5.20;4.83;;;;;;;;;;5076292;28;20506;-75
2024/04/06 01:32:25;;;;;;;4.90;4.33;;;;;;;;;;5076393;28;20456;-73
2024/04/06 01:34:50;;;;;;;7.53;4.77;;;;;;;;;;5071625;28;20229;-75
2024/04/06 01:37:17;;;;;;;4.80;4.30;;;;;;;;;;5078691;28;20458;-68
2024/04/06 01:39:43;;;;;;;4.60;4.30;;;;;;;;;;5072713;28;20252;-73
2024/04/06 01:42:11;;;;;;;4.77;4.33;;;;;;;;;;5072290;28;20840;-72
2024/04/06 01:44:36;;;;;;;4.83;4.33;;;;;;;;;;5071090;28;20255;-71
2024/04/06 01:47:03;;;;;;;4.10;3.70;;;;;;;;;;5074739;28;20451;-73
2024/04/06 01:49:28;;;;;;;4.60;3.50;;;;;;;;;;5067553;28;20286;-73
2024/04/06 01:51:55;;;;;;;3.23;3.00;;;;;;;;;;5075818;28;20439;-73
2024/04/06 01:54:20;;;;;;;4.87;3.67;;;;;;;;;;5071955;28;20210;-73
2024/04/06 01:56:46;;;;;;;4.67;3.40;;;;;;;;;;5075756;28;20455;-73
2024/04/06 01:59:13;;;;;;;3.77;3.47;;;;;;;;;;5082119;28;20213;-74
2024/04/06 02:01:41;;;;;;;4.20;3.90;;;;;;;;;;5076494;28;20449;-74
2024/04/06 02:04:06;;;;;;;5.73;4.10;;;;;;;;;;5079411;28;20456;-71
2024/04/06 02:06:33;;;;;;;4.27;3.87;;;;;;;;;;5076609;28;20439;-74
2024/04/06 02:08:58;;;;;;;3.60;3.20;;;;;;;;;;5080593;28;20359;-73
2024/04/06 02:11:24;;;;;;;4.53;4.13;;;;;;;;;;5077374;28;20456;-73
2024/04/06 02:13:50;;;;;;;6.93;4.23;;;;;;;;;;5077759;28;20226;-73
2024/04/06 02:16:18;;;;;;;4.53;4.13;;;;;;;;;;5078126;28;20447;-72
2024/04/06 02:18:43;;;;;;;4.63;4.07;;;;;;;;;;5076464;28;20214;-74
2024/04/06 02:21:12;;;;;;;4.50;4.10;;;;;;;;;;5077865;28;20548;-74
2024/04/06 02:23:38;;;;;;;4.37;3.97;;;;;;;;;;5076358;28;20218;-73
2024/04/06 02:26:05;;;;;;;7.77;3.77;;;;;;;;;;5079473;28;20444;-74
2024/04/06 02:28:30;;;;;;;4.40;4.00;;;;;;;;;;5079566;28;20209;-74
2024/04/06 02:30:57;;;;;;;4.20;3.87;;;;;;;;;;5077523;28;20452;-75
2024/04/06 02:33:24;;;;;;;6.30;4.23;;;;;;;;;;5074857;28;20275;-74
2024/04/06 02:35:50;;;;;;;4.70;4.30;;;;;;;;;;5077681;28;21309;-73
2024/04/06 02:38:16;;;;;;;4.40;3.93;;;;;;;;;;5076237;28;20953;-72
2024/04/06 02:40:42;;;;;;;4.00;3.70;;;;;;;;;;5079140;28;20435;-70
2024/04/06 02:43:08;;;;;;;5.63;3.70;;;;;;;;;;5081447;28;21435;-74
2024/04/06 02:45:34;;;;;;;6.40;4.20;;;;;;;;;;5073703;28;20469;-73
2024/04/06 02:48:00;;;;;;;4.13;3.73;;;;;;;;;;5077870;28;20202;-72
2024/04/06 02:50:27;;;;;;;4.53;4.03;;;;;;;;;;5076721;28;20487;-72
2024/04/06 02:52:53;;;;;;;5.80;3.63;;;;;;;;;;5073655;28;20253;-74
2024/04/06 02:55:19;;;;;;;4.70;3.93;;;;;;;;;;5078325;28;20436;-73
2024/04/06 02:57:45;;;;;;;3.70;3.40;;;;;;;;;;5077387;28;20207;-74
2024/04/06 03:00:12;;;;;;;5.83;3.90;;;;;;;;;;5078670;28;20456;-73
2024/04/06 03:02:38;;;;;;;3.47;3.17;;;;;;;;;;5074811;28;20213;-71
2024/04/06 03:05:05;;;;;;;4.37;3.97;;;;;;;;;;5076818;28;20451;-74
2024/04/06 03:07:32;;;;;;;4.10;3.43;;;;;;;;;;5071973;28;20361;-73
2024/04/06 03:09:58;;;;;;;4.63;4.23;;;;;;;;;;5073718;28;20495;-73
2024/04/06 03:12:24;;;;;;;4.17;3.40;;;;;;;;;;5070368;28;20478;-73
2024/04/06 03:14:51;;;;;;;4.77;3.63;;;;;;;;;;5075746;28;20444;-70
2024/04/06 03:17:16;;;;;;;15.50;3.50;;;;;;;;;;5076392;28;20205;-70
2024/04/06 03:19:43;;;;;;;6.53;3.30;;;;;;;;;;5073990;28;20957;-73
2024/04/06 03:22:08;;;;;;;3.87;3.43;;;;;;;;;;5094513;28;20307;-70
2024/04/06 03:24:36;;;;;;;4.43;3.50;;;;;;;;;;5096546;28;20474;-74
2024/04/06 03:27:02;;;;;;;3.70;3.40;;;;;;;;;;5099245;28;20209;-74
2024/04/06 03:29:28;;;;;;;3.97;3.57;;;;;;;;;;5098069;28;20565;-73
2024/04/06 03:31:54;;;;;;;4.30;3.10;;;;;;;;;;5092207;28;20254;-73
2024/04/06 03:34:20;;;;;;;6.60;3.50;;;;;;;;;;5096618;28;20973;-73
2024/04/06 03:36:46;;;;;;;4.77;3.50;;;;;;;;;;5093895;28;20244;-70
2024/04/06 03:39:14;;;;;;;3.70;3.10;;;;;;;;;;5099390;28;20454;-74
2024/04/06 03:41:42;;;;;;;3.77;3.50;;;;;;;;;;5097701;28;20201;-73
2024/04/06 03:44:08;;;;;;;6.00;3.27;;;;;;;;;;5099714;28;20463;-74
2024/04/06 03:46:34;;;;;;;5.03;3.40;;;;;;;;;;5099138;28;20535;-74
2024/04/06 03:49:00;;;;;;;3.73;3.47;;;;;;;;;;5104992;28;20231;-74
2024/04/06 03:51:26;;;;;;;3.73;3.43;;;;;;;;;;5093649;28;20439;-73
2024/04/06 03:53:52;;;;;;;3.50;3.20;;;;;;;;;;5099868;28;20213;-74
2024/04/06 03:56:18;;;;;;;4.40;3.57;;;;;;;;;;5092745;28;20436;-73
2024/04/06 03:58:48;;;;;;;3.70;3.37;;;;;;;;;;5097745;28;20214;-75
2024/04/06 04:01:14;;;;;;;4.63;3.47;;;;;;;;;;5108166;28;20450;-74
2024/04/06 04:03:40;;;;;;;3.63;3.33;;;;;;;;;;5102559;28;20481;-72
2024/04/06 04:06:06;;;;;;;3.50;2.70;;;;;;;;;;5102747;28;20442;-74
2024/04/06 04:08:32;;;;;;;3.60;3.30;;;;;;;;;;5094759;28;20213;-73
2024/04/06 04:10:58;;;;;;;3.53;3.17;;;;;;;;;;5087950;28;20467;-75
2024/04/06 04:13:24;;;;;;;6.10;3.63;;;;;;;;;;5092184;28;20244;-73
2024/04/06 04:15:53;;;;;;;3.73;3.43;;;;;;;;;;5094254;28;20439;-74
2024/04/06 04:18:19;;;;;;;4.00;3.33;;;;;;;;;;5108566;28;20218;-74
2024/04/06 04:20:45;;;;;;;3.40;3.20;;;;;;;;;;5097807;28;20510;-74
2024/04/06 04:23:11;;;;;;;4.00;3.20;;;;;;;;;;5096863;28;20209;-71
2024/04/06 04:25:38;;;;;;;3.27;3.07;;;;;;;;;;5101229;28;20518;-74
2024/04/06 04:28:04;;;;;;;5.43;3.63;;;;;;;;;;5100440;28;20455;-73
2024/04/06 04:30:31;;;;;;;3.43;3.10;;;;;;;;;;5095342;28;20484;-73
2024/04/06 04:32:58;;;;;;;3.10;2.90;;;;;;;;;;5097570;28;20557;-73
2024/04/06 04:35:25;;;;;;;3.80;3.20;;;;;;;;;;5099084;28;20451;-75
2024/04/06 04:37:50;;;;;;;3.43;3.00;;;;;;;;;;5096151;28;20489;-72
2024/04/06 04:40:17;;;;;;;3.40;3.20;;;;;;;;;;5094748;28;20451;-75
2024/04/06 04:42:42;;;;;;;4.00;2.80;;;;;;;;;;5101156;28;20231;-74
2024/04/06 04:45:09;;;;;;;3.67;3.17;;;;;;;;;;5096561;28;20447;-73
2024/04/06 04:47:34;;;;;;;3.33;3.10;;;;;;;;;;5096402;28;20212;-73
2024/04/06 04:50:03;;;;;;;4.20;3.23;;;;;;;;;;5096694;28;20553;-75
2024/04/06 04:52:29;;;;;;;4.50;3.60;;;;;;;;;;5092910;28;20208;-73
2024/04/06 04:54:55;;;;;;;3.73;3.43;;;;;;;;;;5093734;28;20465;-74
2024/04/06 04:57:21;;;;;;;3.80;3.50;;;;;;;;;;5095829;28;20217;-72
2024/04/06 04:59:47;;;;;;;4.10;3.30;;;;;;;;;;5096751;28;20489;-74
2024/04/06 05:02:14;;;;;;;3.53;3.27;;;;;;;;;;5101655;28;20266;-72
2024/04/06 05:04:40;;;;;;;3.10;2.90;;;;;;;;;;5096248;28;20522;-72
2024/04/06 05:07:07;;;;;;;3.33;3.03;;;;;;;;;;5095865;28;20490;-72
2024/04/06 05:09:33;;;;;;;7.27;4.07;;;;;;;;;;5096469;28;20512;-73
2024/04/06 05:11:59;;;;;;;5.63;3.30;;;;;;;;;;5098456;28;20451;-73
2024/04/06 05:14:25;;;;;;;3.80;3.43;;;;;;;;;;5096025;28;20467;-72
2024/04/06 05:16:51;;;;;;;3.07;2.87;;;;;;;;;;5095870;28;20207;-73
2024/04/06 05:19:17;;;;;;;3.43;3.10;;;;;;;;;;5096788;28;21102;-74
2024/04/06 05:21:43;;;;;;;4.47;3.00;;;;;;;;;;5082276;28;20308;-72
2024/04/06 05:24:11;;;;;;;3.30;3.00;;;;;;;;;;5070048;28;20533;-69
2024/04/06 05:26:37;;;;;;;2.90;2.70;;;;;;;;;;5075430;28;20202;-73
2024/04/06 05:29:03;;;;;;;2.87;2.67;;;;;;;;;;5076380;28;20467;-73
2024/04/06 05:31:29;;;;;;;4.23;3.10;;;;;;;;;;5074782;28;20574;-74
2024/04/06 05:33:55;;;;;;;4.57;2.80;;;;;;;;;;5075806;28;20875;-73
2024/04/06 05:36:21;;;;;;;3.40;3.10;;;;;;;;;;5073103;28;20447;-73
2024/04/06 05:38:49;;;;;;;3.73;3.43;;;;;;;;;;5068222;28;20460;-75
2024/04/06 05:41:16;;;;;;;4.73;3.50;;;;;;;;;;5074306;28;20197;-74
2024/04/06 05:43:42;;;;;;;4.20;3.50;;;;;;;;;;5071536;28;20491;-72
2024/04/06 05:46:08;;;;;;;4.20;3.83;;;;;;;;;;5075750;28;20436;-74
2024/04/06 05:48:34;;;;;;;4.33;4.00;;;;;;;;;;5070629;28;20474;-73
2024/04/06 05:51:00;;;;;;;4.97;4.00;;;;;;;;;;5074063;28;20229;-72
2024/04/06 05:53:27;;;;;;;4.43;4.03;;;;;;;;;;5067493;28;20516;-73
2024/04/06 05:55:52;;;;;;;7.50;3.70;;;;;;;;;;5072597;28;20352;-75
2024/04/06 05:58:20;;;;;;;3.83;3.60;;;;;;;;;;5069600;28;20443;-76
2024/04/06 06:00:47;;;;;;;4.07;3.77;;;;;;;;;;5066937;28;20211;-75
2024/04/06 06:03:14;;;;;;;4.50;4.23;;;;;;;;;;5069795;28;20451;-74
2024/04/06 06:05:39;;;;;;;4.50;4.20;;;;;;;;;;5075749;28;20896;-74
2024/04/06 06:08:07;;;;;;;4.57;4.20;;;;;;;;;;5071855;28;20479;-73
2024/04/06 06:10:32;;;;;;;4.33;4.03;;;;;;;;;;5075476;28;20229;-72
2024/04/06 06:12:59;;;;;;;5.17;4.87;;;;;;;;;;5075044;28;20486;-73
2024/04/06 06:15:26;;;;;;;4.73;4.43;;;;;;;;;;5074127;28;20202;-74
2024/04/06 06:17:52;;;;;;;7.30;5.43;;;;;;;;;;5076489;28;20455;-73
2024/04/06 06:20:19;;;;;;;4.90;4.50;;;;;;;;;;5074779;28;20491;-74
2024/04/06 06:22:45;;;;;;;5.17;4.77;;;;;;;;;;5072117;28;20471;-73
2024/04/06 06:25:11;;;;;;;5.20;4.90;;;;;;;;;;5071581;28;20448;-75
2024/04/06 06:27:37;;;;;;;5.47;5.07;;;;;;;;;;5075272;28;20478;-72
2024/04/06 06:30:04;;;;;;;5.33;5.03;;;;;;;;;;5073271;28;20245;-74
2024/04/06 06:32:32;;;;;;;5.47;5.17;;;;;;;;;;5068707;28;21211;-75
2024/04/06 06:34:57;;;;;;;5.87;5.57;;;;;;;;;;5072078;28;20481;-75
2024/04/06 06:37:24;;;;;;;5.33;4.93;;;;;;;;;;5071109;28;20455;-72
2024/04/06 06:39:49;;;;;;;5.13;4.73;;;;;;;;;;5070533;28;20207;-75
2024/04/06 06:42:16;;;;;;;5.47;5.17;;;;;;;;;;5070537;28;20481;-74
2024/04/06 06:44:41;;;;;;;4.67;4.37;;;;;;;;;;5071751;28;20214;-74
2024/04/06 06:47:08;;;;;;;5.10;4.80;;;;;;;;;;5076550;28;21061;-75
2024/04/06 06:49:35;;;;;;;5.13;4.90;;;;;;;;;;5076508;28;20209;-75
2024/04/06 06:52:01;;;;;;;5.43;5.10;;;;;;;;;;5078198;28;20570;-74
2024/04/06 06:54:27;;;;;;;5.87;5.30;;;;;;;;;;5078166;28;21012;-76
2024/04/06 06:56:53;;;;;;;5.07;4.87;;;;;;;;;;5080823;28;20451;-77
2024/04/06 06:59:19;;;;;;;5.97;5.57;;;;;;;;;;5079242;28;20216;-76
2024/04/06 07:01:46;;;;;;;5.70;5.30;;;;;;;;;;5076445;28;20447;-76
2024/04/06 07:04:12;;;;;;;4.23;4.03;;;;;;;;;;5076309;28;20210;-75
2024/04/06 07:06:40;;;;;;;4.40;4.10;;;;;;;;;;5077686;28;20867;-75
2024/04/06 07:09:07;;;;;;;10.47;4.77;;;;;;;;;;5079875;28;20521;-76
2024/04/06 07:11:33;;;;;;;4.60;4.30;;;;;;;;;;5078703;28;20482;-75
2024/04/06 07:13:59;;;;;;;4.07;3.87;;;;;;;;;;5080351;28;20488;-75
2024/04/06 07:16:26;;;;;;;4.90;4.67;;;;;;;;;;5077416;28;20467;-76
2024/04/06 07:18:51;;;;;;;5.10;4.60;;;;;;;;;;5070060;28;20244;-77
2024/04/06 07:21:18;;;;;;;3.93;3.53;;;;;;;;;;5071342;28;20618;-76
2024/04/06 07:23:45;;;;;;;5.40;5.10;;;;;;;;;;5075596;28;20209;-72
2024/04/06 07:26:12;;;;;;;5.93;5.43;;;;;;;;;;5078727;28;20463;-76
2024/04/06 07:28:37;;;;;;;6.20;5.73;;;;;;;;;;5074970;28;20476;-73
2024/04/06 07:31:04;;;;;;;5.80;5.50;;;;;;;;;;5069181;28;20527;-78
2024/04/06 07:33:30;;;;;;;5.70;5.30;;;;;;;;;;5077729;28;20948;-71
2024/04/06 07:35:56;;;;;;;5.60;5.30;;;;;;;;;;5075841;28;20453;-69
2024/04/06 07:38:25;;;;;;;5.90;5.50;;;;;;;;;;5072475;28;20213;-69
2024/04/06 07:40:58;;;;;;;6.20;5.80;;;;;;;;;;5078157;28;20447;-69
2024/04/06 07:43:24;;;;;;;6.13;5.63;;;;;;;;;;5074563;28;20512;-69
2024/04/06 07:45:50;;;;;;;5.33;5.03;;;;;;;;;;5075762;28;20440;-69
2024/04/06 07:48:16;;;;;;;5.53;5.17;;;;;;;;;;5074432;28;20825;-65
2024/04/06 07:50:42;;;;;;;5.60;5.20;;;;;;;;;;5076193;28;20467;-68
2024/04/06 07:53:08;;;;;;;5.50;5.00;;;;;;;;;;5079645;28;20205;-67
2024/04/06 07:55:35;;;;;;;6.10;5.57;;;;;;;;;;5074713;28;20477;-70
2024/04/06 07:58:02;;;;;;;5.40;5.10;;;;;;;;;;5076336;28;20231;-67
2024/04/06 08:00:28;;;;;;;5.33;4.93;;;;;;;;;;5077331;28;21591;-69
2024/04/06 08:02:53;;;;;;;6.23;5.80;;;;;;;;;;5081829;28;20432;-69
2024/04/06 08:05:20;;;;;;;7.33;5.50;;;;;;;;;;5068218;28;20444;-70
2024/04/06 08:07:45;;;;;;;5.80;5.50;;;;;;;;;;5070276;28;20228;-71
2024/04/06 08:10:16;;;;;;;6.57;6.17;;;;;;;;;;5069577;28;20472;-79
2024/04/06 08:12:42;;;;;;;5.90;5.40;;;;;;;;;;5068757;28;20265;-72
2024/04/06 08:15:10;;;;;;;5.33;4.93;;;;;;;;;;5070916;28;20753;-67
2024/04/06 08:17:36;;;;;;;5.80;5.40;;;;;;;;;;5069337;28;20206;-66
2024/04/06 08:20:04;;;;;;;5.47;5.13;;;;;;;;;;5075471;28;20500;-65
2024/04/06 08:22:29;;;;;;;5.87;5.50;;;;;;;;;;5080339;28;20491;-67
2024/04/06 08:24:56;;;;;;;6.40;5.67;;;;;;;;;;5077590;28;20447;-68
2024/04/06 08:27:21;;;;;;;5.80;5.50;;;;;;;;;;5076923;28;20342;-68
2024/04/06 08:29:49;;;;;;;6.47;5.40;;;;;;;;;;5077245;28;20441;-67
2024/04/06 08:32:17;;;;;;;6.50;5.87;;;;;;;;;;5079568;28;20201;-71
2024/04/06 08:34:43;;;;;;;5.63;5.13;;;;;;;;;;5067395;28;20475;-71
2024/04/06 08:37:09;;;;;;;5.63;5.33;;;;;;;;;;5076235;28;20460;-72
2024/04/06 08:39:35;;;;;;;6.07;5.60;;;;;;;;;;5073842;28;20502;-71
2024/04/06 08:42:02;;;;;;;6.23;5.87;;;;;;;;;;5076740;28;20197;-71
2024/04/06 08:44:37;;;;;;;5.40;5.10;;;;;;;;;;5074678;28;20490;-73
2024/04/06 08:47:03;;;;;;;5.70;5.30;;;;;;;;;;5070327;28;20452;-74
2024/04/06 08:49:31;;;;;;;6.27;5.70;;;;;;;;;;5074872;28;20454;-68
2024/04/06 08:51:58;;;;;;;5.47;5.13;;;;;;;;;;5076115;28;20244;-65
2024/04/06 08:54:25;;;;;;;5.97;5.50;;;;;;;;;;5078555;28;20454;-71
2024/04/06 08:56:50;;;;;;;6.00;5.47;;;;;;;;;;5077781;28;20514;-71
2024/04/06 08:59:17;;;;;;;6.30;5.80;;;;;;;;;;5069237;28;20451;-66
2024/04/06 09:01:42;;;;;;;6.03;5.60;;;;;;;;;;5074258;28;20197;-70
2024/04/06 09:04:09;;;;;;;5.87;5.47;;;;;;;;;;5074579;28;20490;-68
2024/04/06 09:06:38;;;;;;;5.80;5.50;;;;;;;;;;5076533;28;20269;-70
2024/04/06 09:09:06;;;;;;;5.80;5.50;;;;;;;;;;5075443;28;20461;-71
2024/04/06 09:11:32;;;;;;;5.30;5.00;;;;;;;;;;5074502;28;20562;-68
2024/04/06 09:14:02;;;;;;;5.70;5.40;;;;;;;;;;5076556;28;20498;-71
2024/04/06 09:16:28;;;;;;;5.93;5.63;;;;;;;;;;5073696;28;20214;-70
2024/04/06 09:18:54;;;;;;;5.70;5.40;;;;;;;;;;5076544;28;20546;-72
2024/04/06 09:44:32;;;;;;;6.40;5.90;;;;;;;;;;5094906;28;20425;-70
2024/04/06 09:46:59;;;;;;;5.87;5.57;;;;;;;;;;5072284;28;20472;-70
2024/04/06 09:49:26;;;;;;;5.50;5.20;;;;;;;;;;5063041;28;20469;-71
2024/04/06 09:51:52;;;;;;;5.80;5.50;;;;;;;;;;5073280;28;21872;-69
2024/04/06 09:54:20;;;;;;;9.00;5.97;;;;;;;;;;5079216;28;21032;-72
2024/04/06 09:56:46;;;;;;;7.30;5.40;;;;;;;;;;5071391;28;20196;-71
2024/04/06 09:59:22;;;;;;;6.67;6.17;;;;;;;;;;5077848;28;20468;-71
2024/04/06 10:01:47;;;;;;;5.83;5.50;;;;;;;;;;5075899;28;21034;-71
2024/04/06 10:04:24;;;;;;;6.20;5.67;;;;;;;;;;5075503;28;20451;-70
2024/04/06 10:06:50;;;;;;;5.43;5.03;;;;;;;;;;5073816;28;20213;-70
2024/04/06 10:09:17;;;;;;;6.13;5.60;;;;;;;;;;5075655;28;20689;-65
2024/04/06 10:11:43;;;;;;;5.90;5.60;;;;;;;;;;5072819;28;20202;-70
2024/04/06 10:14:09;;;;;;;6.30;5.90;;;;;;;;;;5077120;28;20478;-69
2024/04/06 10:16:37;;;;;;;5.70;5.40;;;;;;;;;;5077862;28;20213;-70
2024/04/06 10:19:03;;;;;;;6.73;6.23;;;;;;;;;;5077629;28;20503;-71
2024/04/06 10:21:32;;;;;;;6.00;5.50;;;;;;;;;;5078553;28;20552;-69
2024/04/06 10:23:58;;;;;;;6.10;5.70;;;;;;;;;;5077611;28;21022;-71
2024/04/06 10:26:24;;;;;;;6.10;5.60;;;;;;;;;;5079468;28;20455;-71
2024/04/06 10:28:50;;;;;;;6.90;6.40;;;;;;;;;;5074755;28;20513;-70
2024/04/06 10:31:16;;;;;;;5.50;5.20;;;;;;;;;;5072731;28;20250;-66
2024/04/06 10:33:43;;;;;;;6.93;5.83;;;;;;;;;;5076279;28;20696;-71
2024/04/06 10:36:10;;;;;;;5.67;5.27;;;;;;;;;;5077974;28;20274;-71
2024/04/06 10:38:41;;;;;;;5.77;5.43;;;;;;;;;;5077588;28;20471;-72
2024/04/06 10:41:11;;;;;;;5.70;5.30;;;;;;;;;;5081878;28;20863;-71
2024/04/06 10:43:37;;;;;;;6.20;5.70;;;;;;;;;;5076091;28;20478;-71
2024/04/06 10:46:03;;;;;;;6.43;5.90;;;;;;;;;;5077438;28;20486;-68
2024/04/06 10:48:30;;;;;;;6.50;6.00;;;;;;;;;;5078758;28;20447;-70
2024/04/06 10:50:56;;;;;;;6.00;5.47;;;;;;;;;;5076218;28;20236;-69
2024/04/06 10:53:23;;;;;;;6.40;6.00;;;;;;;;;;5072553;28;20491;-72
2024/04/06 10:55:53;;;;;;;6.00;5.50;;;;;;;;;;5076249;28;21166;-71
2024/04/06 10:58:20;;;;;;;6.40;5.83;;;;;;;;;;5074549;28;20471;-68
2024/04/06 11:00:45;;;;;;;6.57;5.97;;;;;;;;;;5078635;28;20514;-68
2024/04/06 11:03:12;;;;;;;5.87;5.37;;;;;;;;;;5076307;28;20448;-71
2024/04/06 11:05:38;;;;;;;6.00;5.60;;;;;;;;;;5078092;28;20762;-71
2024/04/06 11:08:05;;;;;;;5.77;5.30;;;;;;;;;;5075578;28;20470;-67
2024/04/06 11:10:31;;;;;;;6.53;6.03;;;;;;;;;;5076372;28;20226;-73
2024/04/06 11:12:59;;;;;;;6.40;6.00;;;;;;;;;;5076497;28;20474;-72
2024/04/06 11:15:25;;;;;;;6.07;5.67;;;;;;;;;;5070948;28;20214;-70
2024/04/06 11:17:53;;;;;;;6.00;5.60;;;;;;;;;;5076122;28;20456;-70
2024/04/06 11:20:18;;;;;;;7.27;6.60;;;;;;;;;;5076703;28;20586;-70
2024/04/06 11:22:45;;;;;;;6.37;5.77;;;;;;;;;;5076916;28;21238;-70
2024/04/06 11:25:12;;;;;;;6.67;6.20;;;;;;;;;;5080445;28;20213;-68
2024/04/06 11:27:39;;;;;;;6.30;5.90;;;;;;;;;;5077313;28;20448;-70
2024/04/06 11:30:07;;;;;;;6.10;5.70;;;;;;;;;;5077907;28;20452;-69
2024/04/06 11:32:33;;;;;;;5.77;5.37;;;;;;;;;;5077919;28;20506;-71
2024/04/06 11:34:58;;;;;;;6.10;5.67;;;;;;;;;;5078510;28;20560;-72
2024/04/06 11:37:26;;;;;;;5.60;5.23;;;;;;;;;;5077611;28;20472;-71
2024/04/06 11:39:52;;;;;;;5.90;5.40;;;;;;;;;;5077718;28;20240;-70
2024/04/06 11:42:19;;;;;;;5.90;5.50;;;;;;;;;;5073360;28;20476;-71
2024/04/06 11:44:44;;;;;;;5.93;5.57;;;;;;;;;;5076652;28;20696;-70
2024/04/06 11:47:12;;;;;;;6.30;5.90;;;;;;;;;;5078800;28;20512;-70
2024/04/06 11:49:38;;;;;;;6.10;5.80;;;;;;;;;;5073839;28;20220;-69
2024/04/06 11:52:04;;;;;;;5.83;5.53;;;;;;;;;;5073746;28;20908;-71
2024/04/06 11:54:31;;;;;;;5.57;5.20;;;;;;;;;;5078828;28;20227;-70
2024/04/06 11:56:58;;;;;;;5.60;5.30;;;;;;;;;;5071769;28;20459;-72
2024/04/06 11:59:24;;;;;;;6.67;5.40;;;;;;;;;;5072919;28;20467;-71
2024/04/06 12:01:50;;;;;;;6.27;5.87;;;;;;;;;;5077450;28;20578;-72
2024/04/06 12:04:17;;;;;;;6.40;5.87;;;;;;;;;;5075206;28;20221;-67
2024/04/06 12:06:44;;;;;;;5.73;5.23;;;;;;;;;;5079769;28;20485;-72
2024/04/06 12:09:10;;;;;;;5.77;5.37;;;;;;;;;;5077005;28;20458;-72
2024/04/06 12:11:37;;;;;;;6.30;5.87;;;;;;;;;;5075961;28;20738;-69
2024/04/06 12:14:03;;;;;;;6.20;5.90;;;;;;;;;;5076633;28;20237;-71
2024/04/06 12:16:30;;;;;;;5.73;5.43;;;;;;;;;;5075376;28;20964;-71
2024/04/06 12:18:56;;;;;;;6.10;5.70;;;;;;;;;;5069536;28;20213;-71
2024/04/06 12:21:24;;;;;;;5.60;5.20;;;;;;;;;;5076736;28;20479;-72
2024/04/06 12:23:49;;;;;;;6.20;5.80;;;;;;;;;;5071701;28;20481;-71
2024/04/06 12:26:16;;;;;;;6.47;6.07;;;;;;;;;;5077304;28;20459;-68
2024/04/06 12:28:41;;;;;;;6.30;5.90;;;;;;;;;;5074293;28;20213;-68
2024/04/06 12:31:08;;;;;;;5.77;5.47;;;;;;;;;;5077246;28;20444;-69
2024/04/06 12:33:33;;;;;;;6.23;5.73;;;;;;;;;;5076731;28;20202;-70
2024/04/06 12:36:00;;;;;;;5.53;5.13;;;;;;;;;;5075010;28;20467;-71
2024/04/06 12:38:27;;;;;;;5.83;5.43;;;;;;;;;;5071630;28;20263;-71
2024/04/06 12:40:53;;;;;;;5.87;5.53;;;;;;;;;;5075824;28;20480;-72
2024/04/06 12:43:19;;;;;;;6.10;5.70;;;;;;;;;;5075956;28;20459;-72
2024/04/06 12:45:46;;;;;;;5.90;5.47;;;;;;;;;;5087423;28;21015;-72
2024/04/06 12:48:11;;;;;;;5.73;5.40;;;;;;;;;;5098242;28;20459;-72
2024/04/06 12:50:38;;;;;;;6.23;5.80;;;;;;;;;;5099901;28;20452;-69
2024/04/06 12:53:03;;;;;;;6.23;5.70;;;;;;;;;;5094310;28;20246;-70
2024/04/06 12:55:32;;;;;;;6.00;5.60;;;;;;;;;;5096772;28;20451;-70
2024/04/06 12:57:57;;;;;;;7.30;6.03;;;;;;;;;;5095527;28;20281;-70
2024/04/06 13:00:24;;;;;;;5.80;5.30;;;;;;;;;;5098800;28;20959;-71
2024/04/06 13:02:49;;;;;;;5.43;5.13;;;;;;;;;;5096124;28;20278;-69
2024/04/06 13:05:16;;;;;;;5.67;5.37;;;;;;;;;;5096822;28;20967;-71
2024/04/06 13:07:42;;;;;;;6.23;5.63;;;;;;;;;;5095399;28;20213;-72
2024/04/06 13:10:10;;;;;;;6.60;6.00;;;;;;;;;;5094808;28;20485;-71
2024/04/06 13:12:37;;;;;;;5.73;5.43;;;;;;;;;;5093074;28;20459;-72
2024/04/06 13:15:05;;;;;;;6.30;5.77;;;;;;;;;;5097922;28;20550;-71
2024/04/06 13:17:30;;;;;;;6.07;5.60;;;;;;;;;;5096879;28;20471;-71
2024/04/06 13:20:10;;;;;;;5.90;5.50;;;;;;;;;;5090921;28;20455;-70
2024/04/06 13:22:35;;;;;;;6.23;5.83;;;;;;;;;;5096649;28;20283;-71
2024/04/06 13:25:03;;;;;;;6.77;6.37;;;;;;;;;;5097049;28;20489;-70
2024/04/06 13:27:29;;;;;;;6.70;6.20;;;;;;;;;;5096769;28;20209;-67
2024/04/06 13:29:57;;;;;;;6.60;6.10;;;;;;;;;;5087916;28;20455;-74
2024/04/06 13:32:22;;;;;;;6.77;6.23;;;;;;;;;;5096401;28;20482;-72
2024/04/06 13:34:52;;;;;;;6.40;6.00;;;;;;;;;;5095038;28;20455;-71
2024/04/06 13:37:18;;;;;;;6.30;5.70;;;;;;;;;;5099104;28;20200;-72
2024/04/06 13:39:46;;;;;;;6.00;5.60;;;;;;;;;;5097913;28;20458;-73
2024/04/06 13:42:12;;;;;;;6.27;5.77;;;;;;;;;;5095702;28;20278;-73
2024/04/06 13:44:39;;;;;;;5.83;5.43;;;;;;;;;;5094304;28;20442;-74
2024/04/06 13:47:06;;;;;;;5.90;5.60;;;;;;;;;;5079791;28;20485;-75
2024/04/06 13:49:32;;;;;;;5.60;5.30;;;;;;;;;;5070591;28;20464;-74
2024/04/06 13:51:58;;;;;;;6.30;5.80;;;;;;;;;;5075468;28;20487;-74
2024/04/06 13:54:24;;;;;;;5.80;5.50;;;;;;;;;;5070677;28;20467;-76
2024/04/06 13:56:50;;;;;;;5.93;5.53;;;;;;;;;;5075793;28;20210;-73
2024/04/06 13:59:16;;;;;;;6.17;5.77;;;;;;;;;;5076121;28;20478;-72
2024/04/06 14:01:42;;;;;;;5.90;5.60;;;;;;;;;;5078095;28;20228;-74
2024/04/06 14:04:10;;;;;;;6.07;5.70;;;;;;;;;;5075363;28;20456;-73
2024/04/06 14:06:36;;;;;;;5.80;5.50;;;;;;;;;;5077214;28;20913;-73
2024/04/06 14:09:02;;;;;;;6.40;6.00;;;;;;;;;;5077531;28;20462;-75
2024/04/06 14:11:28;;;;;;;5.53;5.23;;;;;;;;;;5076640;28;20211;-74
2024/04/06 14:13:55;;;;;;;6.10;5.70;;;;;;;;;;5070009;28;20456;-73
2024/04/06 14:16:21;;;;;;;5.60;5.30;;;;;;;;;;5075101;28;20491;-75
2024/04/06 14:18:47;;;;;;;6.00;5.70;;;;;;;;;;5078398;28;20650;-71
2024/04/06 14:21:14;;;;;;;5.90;5.50;;;;;;;;;;5077020;28;20323;-75
2024/04/06 14:23:41;;;;;;;5.83;5.33;;;;;;;;;;5075624;28;20463;-74
2024/04/06 14:26:08;;;;;;;5.80;5.50;;;;;;;;;;5079570;28;20451;-73
2024/04/06 14:28:35;;;;;;;5.73;5.20;;;;;;;;;;5070277;28;20468;-74
2024/04/06 14:31:00;;;;;;;5.53;5.10;;;;;;;;;;5077918;28;20464;-74
2024/04/06 14:33:28;;;;;;;5.20;4.90;;;;;;;;;;5080386;28;21004;-73
2024/04/06 14:35:53;;;;;;;6.30;5.80;;;;;;;;;;5073978;28;20771;-75
2024/04/06 14:38:21;;;;;;;5.70;5.30;;;;;;;;;;5075612;28;20470;-73
2024/04/06 14:40:47;;;;;;;5.63;5.23;;;;;;;;;;5075927;28;20202;-75
2024/04/06 14:43:13;;;;;;;6.53;5.83;;;;;;;;;;5076874;28;20513;-74
2024/04/06 14:45:39;;;;;;;6.13;5.67;;;;;;;;;;5075884;28;20260;-75
2024/04/06 14:48:06;;;;;;;5.47;5.17;;;;;;;;;;5073988;28;20439;-74
2024/04/06 14:50:31;;;;;;;6.30;5.80;;;;;;;;;;5074421;28;20206;-74
2024/04/06 14:52:58;;;;;;;9.00;5.77;;;;;;;;;;5072685;28;20478;-74
2024/04/06 14:55:25;;;;;;;6.03;5.63;;;;;;;;;;5081135;28;20216;-74
2024/04/06 14:57:52;;;;;;;5.53;5.23;;;;;;;;;;5071298;28;20449;-73
2024/04/06 15:00:17;;;;;;;5.73;5.43;;;;;;;;;;5070792;28;20479;-74
2024/04/06 15:02:44;;;;;;;5.70;5.30;;;;;;;;;;5073328;28;20484;-74